Time;durP1;ratioP1;P1;durP2;ratioP2;P2;SDS_P1;SDS_P2;PMS_P1;PMS_P2;Temp;Humidity;BMP_temperature;BMP_pressure;BME280_temperature;BME280_humidity;BME280_pressure;Samples;Min_cycle;Max_cycle;Signal;HPM_P1;HPM_P2
2023/01/16 00:00:19;;;;;;;7.55;5.25;;;5.00;99.90;;;;;;5077050;28;20040;-93
2023/01/16 00:02:45;;;;;;;6.78;4.18;;;4.90;99.90;;;;;;5079221;28;20055;-96
2023/01/16 00:05:11;;;;;;;10.05;3.83;;;4.90;99.90;;;;;;5061452;28;20537;-96
2023/01/16 00:07:37;;;;;;;7.57;4.65;;;4.90;99.90;;;;;;5080506;28;20500;-93
2023/01/16 00:10:04;;;;;;;9.73;4.22;;;4.90;99.90;;;;;;5079927;28;20134;-94
2023/01/16 00:12:30;;;;;;;9.70;4.40;;;4.90;99.90;;;;;;5078920;28;20036;-96
2023/01/16 00:14:56;;;;;;;6.72;3.28;;;4.90;99.90;;;;;;5062658;28;20437;-95
2023/01/16 00:17:21;;;;;;;8.20;4.03;;;4.90;99.90;;;;;;5062416;28;20055;-95
2023/01/16 00:19:47;;;;;;;8.93;3.92;;;4.80;99.90;;;;;;5061032;28;20054;-95
2023/01/16 00:22:13;;;;;;;6.72;3.65;;;4.80;99.90;;;;;;5076903;28;20476;-93
2023/01/16 00:24:39;;;;;;;6.60;3.40;;;4.80;99.90;;;;;;5060228;28;20051;-94
2023/01/16 00:27:05;;;;;;;6.15;4.20;;;4.80;99.90;;;;;;5060636;28;20040;-92
2023/01/16 00:29:31;;;;;;;9.60;3.58;;;4.70;99.90;;;;;;5059295;28;20051;-91
2023/01/16 00:31:56;;;;;;;7.95;3.50;;;4.70;99.90;;;;;;5060323;28;20040;-96
2023/01/16 00:34:23;;;;;;;8.05;3.88;;;4.70;99.90;;;;;;5060483;28;20110;-95
2023/01/16 00:36:49;;;;;;;4.93;2.80;;;5.20;99.90;;;;;;5077901;28;20088;-95
2023/01/16 00:39:14;;;;;;;9.15;3.50;;;4.60;99.90;;;;;;5060723;28;20080;-95
2023/01/16 00:41:40;;;;;;;7.25;2.85;;;4.60;99.90;;;;;;5059930;28;20032;-94
2023/01/16 00:44:06;;;;;;;9.38;3.00;;;4.60;99.90;;;;;;5077207;28;20117;-96
2023/01/16 00:46:31;;;;;;;7.25;3.50;;;4.50;99.90;;;;;;5077081;28;20047;-94
2023/01/16 00:48:57;;;;;;;8.88;3.10;;;4.50;99.90;;;;;;5047078;28;20123;-94
2023/01/16 00:51:23;;;;;;;5.70;3.42;;;4.40;99.90;;;;;;5076436;28;20093;-94
2023/01/16 00:53:49;;;;;;;8.10;3.30;;;4.70;99.90;;;;;;5076833;28;20060;-92
2023/01/16 00:56:14;;;;;;;5.00;3.05;;;4.30;99.90;;;;;;5059556;28;20048;-91
2023/01/16 00:58:40;;;;;;;4.75;2.75;;;4.20;99.90;;;;;;5042649;28;20048;-92
2023/01/16 01:01:06;;;;;;;5.82;2.80;;;4.10;99.90;;;;;;5076140;28;20040;-90
2023/01/16 01:03:32;;;;;;;6.72;3.08;;;4.10;99.90;;;;;;5059190;28;20532;-93
2023/01/16 01:05:58;;;;;;;5.80;2.50;;;4.70;99.90;;;;;;5059583;28;20134;-95
2023/01/16 01:08:24;;;;;;;4.35;2.47;;;4.60;99.90;;;;;;5059739;28;20060;-94
2023/01/16 01:10:50;;;;;;;7.35;3.03;;;3.80;99.90;;;;;;5060736;28;20548;-95
2023/01/16 01:13:15;;;;;;;9.32;3.13;;;4.40;99.90;;;;;;5043942;28;20430;-95
2023/01/16 01:15:41;;;;;;;8.23;2.90;;;3.80;99.90;;;;;;5061775;28;20392;-95
2023/01/16 01:18:07;;;;;;;7.78;2.83;;;3.70;99.90;;;;;;5079174;28;20131;-96
2023/01/16 01:20:33;;;;;;;5.95;3.15;;;3.70;99.90;;;;;;5079352;28;20051;-95
2023/01/16 01:22:58;;;;;;;5.05;2.60;;;3.70;99.90;;;;;;5062521;28;20048;-94
2023/01/16 01:25:24;;;;;;;7.00;3.00;;;3.60;99.90;;;;;;5044709;28;20043;-95
2023/01/16 01:27:50;;;;;;;9.43;3.08;;;3.80;99.90;;;;;;5077205;28;20044;-96
2023/01/16 01:30:16;;;;;;;6.78;2.60;;;3.60;99.90;;;;;;5060495;28;20113;-94
2023/01/16 01:32:42;;;;;;;8.90;2.92;;;3.60;99.90;;;;;;5063074;28;20051;-93
2023/01/16 01:35:08;;;;;;;7.68;3.00;;;3.60;99.90;;;;;;5080144;28;20044;-93
2023/01/16 01:37:35;;;;;;;7.95;2.95;;;3.70;99.90;;;;;;5063422;28;20493;-92
2023/01/16 01:40:02;;;;;;;7.05;2.85;;;4.40;99.90;;;;;;5063623;28;20054;-95
2023/01/16 01:42:43;;;;;;;10.77;3.28;;;3.80;99.90;;;;;;5088491;28;20079;-95
2023/01/16 01:45:24;;;;;;;9.13;3.07;;;3.90;99.90;;;;;;5054580;28;20040;-96
2023/01/16 01:47:55;;;;;;;7.70;2.92;;;3.80;99.90;;;;;;5084033;28;20047;-92
2023/01/16 01:50:27;;;;;;;9.20;3.08;;;3.80;99.90;;;;;;5079720;28;20040;-94
2023/01/16 01:52:53;;;;;;;10.23;4.03;;;3.90;99.90;;;;;;5062831;28;20449;-90
2023/01/16 01:55:21;;;;;;;8.48;3.35;;;3.90;99.90;;;;;;5079008;28;20075;-91
2023/01/16 01:57:54;;;;;;;6.93;3.22;;;4.50;99.90;;;;;;5079102;28;20079;-95
2023/01/16 02:00:22;;;;;;;8.85;3.60;;;4.20;99.90;;;;;;5080024;28;20043;-95
2023/01/16 02:03:12;;;;;;;9.30;3.38;;;3.90;99.90;;;;;;5080144;28;20083;-95
2023/01/16 02:05:45;;;;;;;7.22;3.50;;;3.90;99.90;;;;;;5079210;28;20048;-89
2023/01/16 02:08:16;;;;;;;10.07;3.40;;;4.00;99.90;;;;;;5075370;28;20493;-90
2023/01/16 02:10:52;;;;;;;7.85;3.05;;;4.00;99.90;;;;;;5075515;28;20536;-91
2023/01/16 02:13:17;;;;;;;9.65;3.55;;;4.10;99.90;;;;;;5058801;28;20055;-90
2023/01/16 02:21:40;;;;;;;7.20;3.47;;;4.10;99.90;;;;;;5075545;28;20040;-89
2023/01/16 02:24:35;;;;;;;10.73;3.47;;;4.20;99.90;;;;;;5075330;28;20044;-91
2023/01/16 02:27:36;;;;;;;8.30;3.25;;;4.20;99.90;;;;;;5075675;28;20044;-94
2023/01/16 02:30:29;;;;;;;10.55;3.50;;;4.20;99.90;;;;;;5067920;28;20245;-92
2023/01/16 02:33:17;;;;;;;12.02;3.10;;;4.20;99.90;;;;;;5075480;28;20131;-90
2023/01/16 02:36:00;;;;;;;8.07;3.63;;;4.20;99.90;;;;;;5075101;28;20048;-93
2023/01/16 02:38:45;;;;;;;8.52;3.30;;;4.20;99.90;;;;;;5075534;28;20104;-91
2023/01/16 02:41:43;;;;;;;9.25;2.90;;;4.20;99.90;;;;;;5075256;28;20075;-94
2023/01/16 02:44:24;;;;;;;7.00;3.13;;;4.30;99.90;;;;;;5074087;28;20037;-93
2023/01/16 02:47:15;;;;;;;5.50;2.90;;;4.30;99.90;;;;;;5075853;28;20049;-95
2023/01/16 02:49:52;;;;;;;5.78;2.88;;;4.30;99.90;;;;;;5075759;28;20047;-95
2023/01/16 02:52:26;;;;;;;8.45;2.88;;;4.30;99.90;;;;;;5078190;28;20063;-91
2023/01/16 02:55:02;;;;;;;6.78;2.70;;;4.30;99.90;;;;;;5075301;28;20036;-91
2023/01/16 02:57:34;;;;;;;7.60;2.75;;;4.40;99.90;;;;;;5099327;28;20032;-88
2023/01/16 03:00:02;;;;;;;6.82;2.63;;;4.70;99.90;;;;;;5075168;28;20397;-94
2023/01/16 03:02:28;;;;;;;10.02;2.92;;;4.40;99.90;;;;;;5074949;28;20054;-95
2023/01/16 03:04:54;;;;;;;5.85;2.50;;;4.40;99.90;;;;;;5058411;28;20134;-95
2023/01/16 03:07:54;;;;;;;7.07;2.47;;;4.40;99.90;;;;;;5072235;28;20053;-95
2023/01/16 03:10:38;;;;;;;5.55;2.38;;;4.30;99.90;;;;;;5074314;28;20526;-92
2023/01/16 03:13:15;;;;;;;8.73;2.60;;;4.30;99.90;;;;;;5057815;28;20052;-92
2023/01/16 03:16:03;;;;;;;8.52;2.60;;;4.30;99.90;;;;;;5074164;28;20037;-93
2023/01/16 03:18:45;;;;;;;6.88;2.60;;;4.30;99.90;;;;;;5074645;28;20461;-92
2023/01/16 03:21:23;;;;;;;11.63;4.03;;;4.30;99.90;;;;;;5074065;28;20052;-89
2023/01/16 03:23:57;;;;;;;9.65;2.50;;;4.20;99.90;;;;;;5056904;28;20044;-89
2023/01/16 03:26:30;;;;;;;10.00;2.35;;;4.20;99.90;;;;;;5073901;28;20044;-90
2023/01/16 03:29:05;;;;;;;5.10;2.42;;;4.20;99.90;;;;;;5057224;28;20048;-94
2023/01/16 03:31:42;;;;;;;10.95;2.45;;;4.30;99.90;;;;;;5075105;28;20055;-94
2023/01/16 03:34:25;;;;;;;6.65;2.35;;;4.20;99.90;;;;;;5057583;28;20059;-93
2023/01/16 03:37:04;;;;;;;8.45;2.67;;;4.30;99.90;;;;;;5074092;28;20048;-93
2023/01/16 03:39:35;;;;;;;6.63;2.63;;;4.30;99.90;;;;;;5057865;28;20053;-93
2023/01/16 03:42:08;;;;;;;11.73;2.95;;;4.30;99.90;;;;;;5073814;28;20044;-93
2023/01/16 03:44:40;;;;;;;8.32;3.40;;;4.20;99.90;;;;;;5074060;28;20071;-94
2023/01/16 03:47:15;;;;;;;10.60;2.85;;;4.40;99.90;;;;;;5074354;28;20438;-93
2023/01/16 03:49:45;;;;;;;9.05;2.70;;;4.10;99.90;;;;;;5057603;28;20076;-95
2023/01/16 03:52:13;;;;;;;12.38;3.00;;;4.00;99.90;;;;;;5073910;28;20044;-93
2023/01/16 03:54:53;;;;;;;8.48;2.72;;;3.80;99.90;;;;;;5073645;28;20078;-92
2023/01/16 03:57:31;;;;;;;6.30;3.10;;;4.00;99.90;;;;;;5073684;28;20186;-91
2023/01/16 03:59:59;;;;;;;9.65;3.10;;;3.80;99.90;;;;;;5056425;28;20052;-89
2023/01/16 04:02:43;;;;;;;9.43;3.08;;;3.70;99.90;;;;;;5073230;28;20052;-89
2023/01/16 04:05:09;;;;;;;7.45;2.90;;;3.70;99.90;;;;;;5056216;28;20049;-89
2023/01/16 04:07:44;;;;;;;9.23;3.00;;;3.70;99.90;;;;;;5072352;28;20479;-89
2023/01/16 04:10:32;;;;;;;6.88;3.05;;;3.80;99.90;;;;;;5056398;28;20048;-90
2023/01/16 04:13:26;;;;;;;6.75;3.10;;;3.80;99.90;;;;;;5055351;28;20060;-90
2023/01/16 04:15:56;;;;;;;9.68;3.65;;;3.90;99.90;;;;;;5054052;28;20064;-90
2023/01/16 04:18:27;;;;;;;9.45;3.10;;;4.00;99.90;;;;;;5056463;28;20048;-91
2023/01/16 04:20:53;;;;;;;7.50;3.00;;;4.50;99.90;;;;;;5072898;28;20056;-89
2023/01/16 04:23:19;;;;;;;6.40;2.97;;;4.10;99.90;;;;;;5039793;28;20469;-88
2023/01/16 04:25:45;;;;;;;10.65;3.20;;;4.10;99.90;;;;;;5039079;28;20059;-87
2023/01/16 04:28:11;;;;;;;8.20;3.08;;;4.20;99.90;;;;;;5073063;28;20477;-89
2023/01/16 04:30:37;;;;;;;6.47;3.20;;;4.20;99.90;;;;;;5039399;28;20043;-88
2023/01/16 04:33:04;;;;;;;11.20;3.50;;;4.30;99.90;;;;;;5039194;28;20055;-94
2023/01/16 04:35:30;;;;;;;9.15;3.50;;;5.20;99.90;;;;;;5038177;28;20048;-92
2023/01/16 04:37:56;;;;;;;6.60;3.55;;;4.30;99.90;;;;;;5054142;28;20054;-91
2023/01/16 04:40:22;;;;;;;7.00;3.47;;;4.40;99.90;;;;;;5054416;28;20048;-92
2023/01/16 04:42:48;;;;;;;11.13;4.18;;;4.50;99.90;;;;;;5072200;28;20037;-93
2023/01/16 04:45:17;;;;;;;7.60;4.13;;;4.40;99.90;;;;;;5054419;28;20044;-93
2023/01/16 04:47:47;;;;;;;7.80;4.28;;;4.50;99.90;;;;;;5055484;28;20048;-92
2023/01/16 04:50:12;;;;;;;8.55;4.03;;;4.50;99.90;;;;;;5054863;28;20548;-92
2023/01/16 04:52:39;;;;;;;9.75;4.43;;;4.60;99.90;;;;;;5071010;28;20186;-91
2023/01/16 04:55:05;;;;;;;6.22;3.55;;;4.50;99.90;;;;;;5054405;28;20063;-94
2023/01/16 04:57:34;;;;;;;7.70;3.95;;;4.60;99.90;;;;;;5037137;28;20303;-90
2023/01/16 04:59:59;;;;;;;9.45;4.20;;;4.60;99.90;;;;;;5071178;28;20044;-91
2023/01/16 05:02:25;;;;;;;10.43;4.78;;;4.60;99.90;;;;;;5053239;28;20618;-90
2023/01/16 05:04:51;;;;;;;7.25;4.10;;;4.60;99.90;;;;;;5070402;28;20186;-91
2023/01/16 05:07:17;;;;;;;10.25;4.72;;;4.60;99.90;;;;;;5040337;28;20149;-91
2023/01/16 05:09:43;;;;;;;10.90;5.05;;;4.60;99.90;;;;;;5074776;28;20048;-95
2023/01/16 05:12:08;;;;;;;8.48;4.35;;;4.60;99.90;;;;;;5058042;28;20403;-90
2023/01/16 05:14:34;;;;;;;13.75;4.85;;;4.50;99.90;;;;;;5074333;28;20057;-91
2023/01/16 05:17:00;;;;;;;10.20;4.40;;;4.90;99.90;;;;;;5074361;28;20044;-92
2023/01/16 05:19:25;;;;;;;9.02;4.28;;;4.50;99.90;;;;;;5074484;28;20492;-90
2023/01/16 05:21:51;;;;;;;9.40;5.03;;;4.60;99.90;;;;;;5074066;28;20049;-94
2023/01/16 05:24:17;;;;;;;9.13;4.25;;;4.60;99.90;;;;;;5073999;28;20039;-91
2023/01/16 05:26:42;;;;;;;12.90;4.88;;;4.60;99.90;;;;;;5057193;28;20101;-90
2023/01/16 05:29:08;;;;;;;13.77;5.13;;;4.80;99.90;;;;;;5073644;28;20102;-90
2023/01/16 05:31:34;;;;;;;8.35;4.70;;;4.60;99.90;;;;;;5074579;28;20044;-92
2023/01/16 05:34:00;;;;;;;10.98;5.28;;;4.60;99.90;;;;;;5059677;28;20032;-91
2023/01/16 05:36:25;;;;;;;10.80;5.30;;;4.60;99.90;;;;;;5059900;28;20190;-91
2023/01/16 05:38:51;;;;;;;11.70;5.63;;;4.60;99.90;;;;;;5076228;28;20542;-92
2023/01/16 05:41:17;;;;;;;11.85;5.55;;;4.60;99.90;;;;;;5076038;28;20475;-92
2023/01/16 05:43:42;;;;;;;12.52;6.30;;;4.60;99.90;;;;;;5076175;28;20044;-92
2023/01/16 05:46:08;;;;;;;12.48;5.90;;;4.80;99.90;;;;;;5059384;28;20045;-92
2023/01/16 05:48:36;;;;;;;14.55;6.30;;;4.60;99.90;;;;;;5058984;28;20246;-92
2023/01/16 05:51:03;;;;;;;15.38;5.88;;;4.60;99.90;;;;;;5058952;28;20055;-92
2023/01/16 05:53:30;;;;;;;13.43;6.57;;;4.60;99.90;;;;;;5075778;28;20045;-91
2023/01/16 05:55:56;;;;;;;20.02;7.53;;;4.60;99.90;;;;;;5042930;28;20059;-92
2023/01/16 05:58:22;;;;;;;11.63;6.72;;;4.60;99.90;;;;;;5075874;28;20131;-92
2023/01/16 06:00:48;;;;;;;16.80;6.85;;;4.50;99.90;;;;;;5059448;28;20091;-93
2023/01/16 06:03:15;;;;;;;14.25;7.55;;;4.40;99.90;;;;;;5042407;28;20048;-92
2023/01/16 06:05:41;;;;;;;19.42;7.72;;;4.80;99.90;;;;;;5075522;28;20579;-92
2023/01/16 06:08:07;;;;;;;18.63;7.82;;;4.20;99.90;;;;;;5073306;28;20084;-93
2023/01/16 06:10:33;;;;;;;17.30;8.57;;;4.10;99.90;;;;;;5075863;28;20423;-92
2023/01/16 06:13:03;;;;;;;23.83;9.52;;;4.10;99.90;;;;;;5042610;28;20048;-92
2023/01/16 06:15:29;;;;;;;21.05;9.20;;;4.50;99.90;;;;;;5075805;28;20049;-90
2023/01/16 06:17:55;;;;;;;20.63;9.43;;;4.00;99.90;;;;;;5076038;28;20048;-92
2023/01/16 06:20:21;;;;;;;20.05;9.98;;;3.90;99.90;;;;;;5042183;28;20099;-92
2023/01/16 06:22:47;;;;;;;23.35;10.50;;;3.90;99.90;;;;;;5075548;28;20045;-92
2023/01/16 06:25:12;;;;;;;21.65;10.40;;;4.00;99.90;;;;;;5058074;28;20044;-91
2023/01/16 06:27:38;;;;;;;24.45;10.18;;;4.50;99.90;;;;;;5076072;28;20046;-92
2023/01/16 06:30:06;;;;;;;23.38;10.48;;;4.10;99.90;;;;;;5075454;28;20044;-91
2023/01/16 06:32:32;;;;;;;19.42;9.85;;;4.10;99.90;;;;;;5058212;28;20045;-92
2023/01/16 06:34:57;;;;;;;23.73;10.60;;;4.10;99.90;;;;;;5058273;28;20044;-90
2023/01/16 06:37:23;;;;;;;23.27;10.25;;;4.10;99.90;;;;;;5058054;28;20550;-90
2023/01/16 06:39:49;;;;;;;24.25;10.57;;;4.10;99.90;;;;;;5058449;28;20045;-91
2023/01/16 06:42:14;;;;;;;27.45;9.95;;;4.80;99.90;;;;;;5041101;28;20048;-90
2023/01/16 06:44:40;;;;;;;20.83;9.63;;;4.10;99.90;;;;;;5075068;28;20079;-90
2023/01/16 06:47:06;;;;;;;21.10;9.60;;;4.20;99.90;;;;;;5058341;28;20079;-91
2023/01/16 06:49:32;;;;;;;20.33;9.40;;;4.20;99.90;;;;;;5074639;28;20489;-91
2023/01/16 06:52:00;;;;;;;19.40;9.32;;;4.20;99.90;;;;;;5041863;28;20056;-92
2023/01/16 06:54:26;;;;;;;19.05;9.35;;;4.30;99.90;;;;;;5074966;28;20414;-91
2023/01/16 06:56:52;;;;;;;19.13;8.43;;;4.60;99.90;;;;;;5058441;28;20040;-92
2023/01/16 06:59:17;;;;;;;19.88;8.45;;;4.20;99.90;;;;;;5074682;28;20036;-91
2023/01/16 07:01:43;;;;;;;16.33;7.75;;;4.30;99.90;;;;;;5058003;28;20393;-91
2023/01/16 07:04:09;;;;;;;23.95;9.05;;;4.40;99.90;;;;;;5074644;28;20053;-91
2023/01/16 07:06:36;;;;;;;20.30;7.95;;;4.20;99.90;;;;;;5074806;28;20105;-94
2023/01/16 07:09:02;;;;;;;22.55;8.35;;;3.90;99.90;;;;;;5061617;28;20131;-91
2023/01/16 07:11:28;;;;;;;20.73;7.65;;;3.90;99.90;;;;;;5077799;28;20035;-93
2023/01/16 07:22:34;;;;;;;24.40;7.50;;;4.50;99.90;;;;;;5061210;28;20043;-92
2023/01/16 07:24:56;;;;;;;19.13;6.90;;;4.00;99.90;;;;;;5077068;28;20090;-92
2023/01/16 07:27:22;;;;;;;13.82;7.00;;;3.70;99.90;;;;;;5077434;28;20048;-91
2023/01/16 07:29:48;;;;;;;16.70;7.25;;;3.80;99.90;;;;;;5044024;28;20051;-92
2023/01/16 07:32:14;;;;;;;15.95;6.25;;;4.00;99.90;;;;;;5077474;28;20040;-92
2023/01/16 07:34:40;;;;;;;16.48;7.10;;;3.70;99.90;;;;;;5044083;28;20040;-92
2023/01/16 07:37:10;;;;;;;12.50;5.93;;;4.00;99.90;;;;;;5060687;28;20048;-91
2023/01/16 07:39:38;;;;;;;15.82;6.78;;;3.70;99.90;;;;;;5076561;28;20583;-91
2023/01/16 07:42:05;;;;;;;19.08;6.70;;;3.70;99.90;;;;;;5060071;28;20527;-92
2023/01/16 07:44:31;;;;;;;18.85;6.88;;;3.70;99.90;;;;;;5076333;28;20044;-92
2023/01/16 07:46:57;;;;;;;17.75;6.90;;;3.60;99.90;;;;;;5059552;28;20135;-92
2023/01/16 07:49:23;;;;;;;15.10;6.60;;;3.90;99.90;;;;;;5060354;28;20044;-91
2023/01/16 07:51:48;;;;;;;18.30;6.82;;;4.40;99.90;;;;;;5077012;28;20511;-92
2023/01/16 07:54:14;;;;;;;16.73;6.28;;;3.70;99.90;;;;;;5077053;28;20058;-93
2023/01/16 07:56:40;;;;;;;11.50;6.35;;;3.70;99.90;;;;;;5060464;28;20101;-93
2023/01/16 07:59:06;;;;;;;13.98;6.32;;;3.70;99.90;;;;;;5076983;28;20051;-92
2023/01/16 08:01:32;;;;;;;15.98;6.45;;;3.70;99.90;;;;;;5076770;28;20055;-92
2023/01/16 08:03:58;;;;;;;15.65;6.28;;;3.70;99.90;;;;;;5076698;28;20080;-91
2023/01/16 08:06:24;;;;;;;14.27;6.65;;;3.80;99.90;;;;;;5043565;28;20140;-91
2023/01/16 08:08:49;;;;;;;18.48;6.75;;;3.80;99.90;;;;;;5059841;28;20088;-92
2023/01/16 08:13:59;;;;;;;16.88;7.00;;;3.90;99.90;;;;;;5079384;28;20135;-93
2023/01/16 08:16:25;;;;;;;15.77;6.05;;;3.70;99.90;;;;;;5076506;28;20143;-91
2023/01/16 08:18:51;;;;;;;17.48;7.28;;;3.70;99.90;;;;;;5076690;28;20044;-91
2023/01/16 08:21:16;;;;;;;14.88;6.85;;;4.20;99.90;;;;;;5060090;28;20087;-92
2023/01/16 08:23:43;;;;;;;16.75;6.45;;;4.40;99.90;;;;;;5076242;28;20044;-93
2023/01/16 08:26:10;;;;;;;16.80;7.10;;;3.80;99.90;;;;;;5076772;28;20043;-92
2023/01/16 08:28:36;;;;;;;20.45;7.25;;;3.80;99.90;;;;;;5060053;28;20117;-92
2023/01/16 08:31:08;;;;;;;17.08;7.13;;;4.00;99.90;;;;;;5076513;28;20056;-90
2023/01/16 08:33:42;;;;;;;15.68;6.68;;;3.90;99.90;;;;;;5060098;28;20040;-91
2023/01/16 08:36:10;;;;;;;14.65;7.07;;;4.00;99.90;;;;;;5076310;28;20055;-92
2023/01/16 08:38:36;;;;;;;15.48;6.63;;;3.90;99.90;;;;;;5076145;28;20543;-91
2023/01/16 08:41:02;;;;;;;16.48;6.97;;;4.40;99.90;;;;;;5075644;28;20484;-90
2023/01/16 08:51:58;;;;;;;14.57;6.38;;;4.00;99.90;;;;;;5076314;28;20079;-90
2023/01/16 08:54:24;;;;;;;16.75;5.88;;;4.00;99.90;;;;;;5059935;28;20043;-92
2023/01/16 08:56:50;;;;;;;16.48;6.07;;;4.00;99.90;;;;;;5059689;28;20048;-92
2023/01/16 08:59:16;;;;;;;10.70;5.95;;;4.10;99.90;;;;;;5076466;28;20131;-93
2023/01/16 09:01:42;;;;;;;15.90;5.78;;;4.10;99.90;;;;;;5076220;28;20427;-94
2023/01/16 09:04:08;;;;;;;10.07;5.22;;;4.10;99.90;;;;;;5076160;28;20074;-92
2023/01/16 09:06:36;;;;;;;9.07;5.28;;;4.20;99.90;;;;;;5075803;28;20052;-92
2023/01/16 09:09:08;;;;;;;13.07;5.82;;;4.20;99.90;;;;;;5059110;28;20059;-92
2023/01/16 09:14:19;;;;;;;8.60;5.38;;;4.30;99.90;;;;;;5076121;28;20056;-91
2023/01/16 09:16:45;;;;;;;10.20;6.15;;;4.20;99.90;;;;;;5059188;28;20048;-93
2023/01/16 09:19:11;;;;;;;11.77;5.43;;;4.20;99.90;;;;;;5059347;28;20198;-91
2023/01/16 09:21:36;;;;;;;13.70;5.68;;;4.20;99.90;;;;;;5059253;28;20495;-92
2023/01/16 09:24:02;;;;;;;11.50;5.13;;;4.90;99.90;;;;;;5075817;28;20067;-91
2023/01/16 09:26:28;;;;;;;9.65;5.18;;;4.30;99.90;;;;;;5076114;28;20130;-90
2023/01/16 09:28:54;;;;;;;11.77;5.13;;;4.30;99.90;;;;;;5076171;28;20118;-91
2023/01/16 09:31:20;;;;;;;13.32;5.53;;;4.40;99.90;;;;;;5059435;28;20152;-91
2023/01/16 09:33:47;;;;;;;12.52;5.00;;;4.80;99.90;;;;;;5075551;28;20052;-92
2023/01/16 09:36:13;;;;;;;14.10;4.95;;;4.40;99.90;;;;;;5075748;28;20051;-91
2023/01/16 09:38:39;;;;;;;11.77;5.53;;;4.40;99.90;;;;;;5058789;28;20048;-90
2023/01/16 09:41:06;;;;;;;8.32;4.20;;;4.40;99.90;;;;;;5075893;28;20058;-90
2023/01/16 09:43:38;;;;;;;6.93;4.38;;;4.50;99.90;;;;;;5059361;28;20130;-91
2023/01/16 09:46:13;;;;;;;9.13;4.07;;;4.50;99.90;;;;;;5075724;28;20489;-91
2023/01/16 09:48:43;;;;;;;11.55;4.93;;;4.50;99.90;;;;;;5075807;28;20044;-92
2023/01/16 09:51:21;;;;;;;7.83;4.20;;;4.50;99.90;;;;;;5059553;28;20567;-92
2023/01/16 09:59:47;;;;;;;8.20;3.90;;;4.70;99.90;;;;;;5078016;28;20052;-90
2023/01/16 10:02:12;;;;;;;9.07;3.80;;;4.80;99.90;;;;;;5061002;28;20052;-86
2023/01/16 10:04:43;;;;;;;8.40;3.83;;;4.50;99.90;;;;;;5077836;28;20114;-87
2023/01/16 10:07:47;;;;;;;6.90;3.40;;;4.70;99.90;;;;;;5061198;28;20392;-87
2023/01/16 10:10:28;;;;;;;9.57;3.63;;;4.60;99.90;;;;;;5032462;28;20053;-86
2023/01/16 10:12:56;;;;;;;4.40;3.17;;;4.60;99.90;;;;;;5061368;28;20043;-87
2023/01/16 10:15:47;;;;;;;6.28;3.35;;;4.50;99.90;;;;;;5041399;28;20048;-87
2023/01/16 10:18:25;;;;;;;5.70;3.20;;;4.50;99.90;;;;;;5041537;28;20160;-87
2023/01/16 10:21:30;;;;;;;5.60;3.00;;;4.60;99.90;;;;;;5056765;28;20044;-85
2023/01/16 10:24:09;;;;;;;5.78;3.22;;;4.50;99.90;;;;;;5056395;28;20053;-87
2023/01/16 10:26:54;;;;;;;7.32;3.22;;;4.60;99.90;;;;;;5058131;28;20056;-86
2023/01/16 10:29:46;;;;;;;6.22;2.83;;;4.70;99.90;;;;;;5057696;28;20056;-86
2023/01/16 10:32:24;;;;;;;5.95;3.10;;;4.60;99.90;;;;;;5057695;28;20059;-86
2023/01/16 10:35:06;;;;;;;8.75;3.17;;;4.60;99.90;;;;;;5057575;28;20560;-87
2023/01/16 10:37:35;;;;;;;4.10;2.63;;;4.60;99.90;;;;;;5057613;28;20053;-87
2023/01/16 10:40:25;;;;;;;5.45;2.75;;;4.70;99.90;;;;;;5041018;28;20052;-85
2023/01/16 10:51:44;;;;;;;6.38;2.22;;;5.00;99.90;;;;;;5029170;28;20045;-85
2023/01/16 10:54:10;;;;;;;5.57;2.33;;;4.60;99.90;;;;;;5056543;28;20098;-86
2023/01/16 10:56:42;;;;;;;2.65;1.98;;;4.60;99.90;;;;;;5045229;28;20047;-86
2023/01/16 10:59:11;;;;;;;5.43;2.40;;;4.80;99.90;;;;;;5060855;28;20044;-85
2023/01/16 11:01:39;;;;;;;4.07;2.10;;;4.60;99.90;;;;;;5060370;28;20048;-86
2023/01/16 11:04:09;;;;;;;2.20;1.95;;;4.80;99.90;;;;;;5075815;28;20056;-86
2023/01/16 11:06:37;;;;;;;5.38;2.10;;;4.90;99.90;;;;;;5060876;28;20374;-85
2023/01/16 11:09:08;;;;;;;6.13;1.95;;;4.60;99.90;;;;;;5072940;28;20106;-85
2023/01/16 11:20:13;;;;;;;3.17;1.80;;;4.30;99.90;;;;;;5073109;28;20131;-85
2023/01/16 11:22:40;;;;;;;4.97;1.95;;;4.30;99.90;;;;;;5056111;28;20048;-85
2023/01/16 11:25:12;;;;;;;3.47;2.10;;;4.80;99.90;;;;;;5056144;28;20051;-87
2023/01/16 11:27:38;;;;;;;2.88;1.80;;;4.40;99.90;;;;;;5056917;28;20083;-86
2023/01/16 11:30:18;;;;;;;2.25;1.80;;;5.00;99.90;;;;;;5056224;28;20087;-86
2023/01/16 11:32:48;;;;;;;3.92;1.90;;;4.80;99.90;;;;;;5055991;28;20048;-85
2023/01/16 11:35:16;;;;;;;3.58;1.80;;;4.60;99.90;;;;;;5072496;28;20052;-86
2023/01/16 11:37:44;;;;;;;5.07;2.10;;;4.40;99.90;;;;;;5056283;28;20052;-86
2023/01/16 11:40:29;;;;;;;6.55;1.90;;;4.70;99.90;;;;;;5055761;28;20048;-87
2023/01/16 11:46:03;;;;;;;4.25;1.98;;;4.50;99.90;;;;;;5052324;28;20049;-87
2023/01/16 11:48:42;;;;;;;4.03;2.13;;;4.50;99.90;;;;;;5052902;28;20098;-86
2023/01/16 11:51:14;;;;;;;2.95;2.00;;;4.50;99.90;;;;;;5020484;28;20045;-87
2023/01/16 11:53:42;;;;;;;6.93;2.15;;;4.50;99.90;;;;;;5052862;28;20208;-86
2023/01/16 11:56:24;;;;;;;3.58;1.90;;;4.50;99.90;;;;;;5052578;28;20043;-87
2023/01/16 11:59:23;;;;;;;2.65;1.70;;;4.50;99.90;;;;;;5052436;28;20052;-86
2023/01/16 12:02:21;;;;;;;3.45;2.10;;;4.50;99.90;;;;;;5035634;28;20513;-86
2023/01/16 12:08:12;;;;;;;5.35;2.80;;;4.50;99.90;;;;;;5058424;28;20044;-88
2023/01/16 12:10:40;;;;;;;4.95;2.33;;;4.50;99.90;;;;;;5071000;28;20103;-87
2023/01/16 12:16:02;;;;;;;3.90;2.80;;;4.50;99.90;;;;;;5072125;28;20052;-86
2023/01/16 12:18:43;;;;;;;5.20;2.53;;;4.50;99.90;;;;;;5072077;28;20059;-86
2023/01/16 12:22:00;;;;;;;7.60;2.50;;;4.50;99.90;;;;;;5071503;28;20043;-86
2023/01/16 12:24:44;;;;;;;4.38;3.13;;;4.50;99.90;;;;;;5046322;28;20084;-87
2023/01/16 12:27:52;;;;;;;7.00;3.30;;;4.50;99.90;;;;;;5072092;28;20041;-86
2023/01/16 12:30:47;;;;;;;3.42;2.40;;;4.60;99.90;;;;;;5049455;28;20060;-87
2023/01/16 12:33:26;;;;;;;3.60;2.40;;;4.60;99.90;;;;;;5071852;28;20048;-87
2023/01/16 12:36:24;;;;;;;5.30;2.38;;;4.60;99.90;;;;;;5072259;28;20049;-86
2023/01/16 12:39:19;;;;;;;5.03;2.30;;;4.60;99.90;;;;;;5049783;28;20072;-86
2023/01/16 12:45:13;;;;;;;3.17;2.25;;;4.70;99.90;;;;;;5071888;28;20048;-86
2023/01/16 12:48:12;;;;;;;5.20;2.67;;;4.70;99.90;;;;;;5064610;28;20052;-85
2023/01/16 12:51:08;;;;;;;5.60;2.40;;;4.70;99.90;;;;;;5051787;28;20519;-85
2023/01/16 12:57:32;;;;;;;5.20;3.33;;;4.80;99.90;;;;;;5091218;28;20136;-87
2023/01/16 13:00:19;;;;;;;4.40;3.00;;;4.70;99.90;;;;;;5058035;28;20055;-87
2023/01/16 13:02:54;;;;;;;5.53;3.97;;;4.80;99.90;;;;;;5058591;28;20686;-88
2023/01/16 13:05:27;;;;;;;5.78;3.45;;;4.80;99.90;;;;;;5058124;28;20040;-88
2023/01/16 13:08:20;;;;;;;4.07;2.75;;;4.80;99.90;;;;;;5075133;28;20491;-87
2023/01/16 13:13:47;;;;;;;5.43;2.78;;;4.80;99.90;;;;;;5075089;28;20343;-87
2023/01/16 13:16:27;;;;;;;6.10;2.72;;;5.10;99.90;;;;;;5075217;28;20063;-88
2023/01/16 13:18:58;;;;;;;4.28;2.70;;;4.80;99.90;;;;;;5058522;28;20044;-87
2023/01/16 13:21:35;;;;;;;4.13;2.88;;;4.80;99.90;;;;;;5058062;28;20040;-88
2023/01/16 13:24:20;;;;;;;5.20;3.20;;;5.10;99.90;;;;;;5058121;28;20093;-87
2023/01/16 13:26:55;;;;;;;7.38;3.03;;;4.90;99.90;;;;;;5058370;28;20549;-87
2023/01/16 13:29:30;;;;;;;5.38;3.00;;;4.80;99.90;;;;;;5062293;28;20044;-87
2023/01/16 13:31:59;;;;;;;3.88;3.28;;;4.90;99.90;;;;;;5078869;28;20055;-87
2023/01/16 13:34:34;;;;;;;5.65;3.20;;;4.90;99.90;;;;;;5061758;28;20476;-87
2023/01/16 13:37:18;;;;;;;5.18;3.17;;;4.90;99.90;;;;;;5062377;28;20147;-87
2023/01/16 13:40:03;;;;;;;4.70;3.53;;;4.90;99.90;;;;;;5070886;28;20047;-87
2023/01/16 13:42:30;;;;;;;6.43;3.40;;;4.90;99.90;;;;;;5078079;28;20094;-88
2023/01/16 13:48:04;;;;;;;5.20;3.30;;;5.00;99.90;;;;;;5078459;28;20052;-87
2023/01/16 13:50:34;;;;;;;8.07;3.67;;;5.00;99.90;;;;;;5061358;28;20654;-87
2023/01/16 13:53:03;;;;;;;5.60;3.38;;;4.90;99.90;;;;;;5061768;28;20135;-88
2023/01/16 13:55:35;;;;;;;4.88;3.45;;;5.30;99.90;;;;;;5059131;28;20040;-87
2023/01/16 13:58:20;;;;;;;6.28;3.55;;;5.20;99.90;;;;;;5070541;28;20044;-87
2023/01/16 14:00:56;;;;;;;5.28;3.10;;;5.00;99.90;;;;;;5061678;28;20054;-87
2023/01/16 14:03:28;;;;;;;4.93;3.22;;;5.00;99.90;;;;;;5061140;28;20093;-87
2023/01/16 14:06:13;;;;;;;4.43;3.50;;;5.00;99.90;;;;;;5077852;28;20044;-87
2023/01/16 14:09:18;;;;;;;6.28;3.42;;;5.00;99.90;;;;;;5077261;28;20055;-88
2023/01/16 14:12:20;;;;;;;5.15;3.35;;;5.00;99.90;;;;;;5061605;28;20134;-88
2023/01/16 14:17:55;;;;;;;5.57;3.75;;;5.00;99.90;;;;;;5075557;28;20490;-87
2023/01/16 14:20:49;;;;;;;4.88;3.67;;;5.10;99.90;;;;;;5077756;28;20052;-87
2023/01/16 14:26:19;;;;;;;4.63;3.42;;;5.20;99.90;;;;;;5077896;28;20054;-87
2023/01/16 14:28:54;;;;;;;5.95;2.97;;;5.20;99.90;;;;;;5078047;28;20109;-88
2023/01/16 14:32:05;;;;;;;5.60;3.20;;;5.10;99.90;;;;;;5077769;28;20052;-87
2023/01/16 14:34:50;;;;;;;6.38;3.50;;;5.10;99.90;;;;;;5062436;28;20063;-89
2023/01/16 14:37:37;;;;;;;3.45;3.03;;;5.10;99.90;;;;;;5059260;28;20047;-87